createdAt,value
2019-06-10T00:01:08.152Z,10.75
2019-06-10T00:03:36.693Z,10.70
2019-06-10T00:06:07.085Z,10.38
2019-06-10T00:08:36.667Z,10.55
2019-06-10T00:11:07.697Z,13.53
2019-06-10T00:13:37.309Z,14.75
2019-06-10T00:16:07.951Z,14.63
2019-06-10T00:18:42.063Z,14.83
2019-06-10T00:21:11.012Z,14.05
2019-06-10T00:23:41.235Z,12.95
2019-06-10T00:26:12.413Z,11.70
2019-06-10T00:28:42.068Z,13.03
2019-06-10T00:31:11.607Z,11.08
2019-06-10T00:33:42.347Z,11.28
2019-06-10T00:36:13.645Z,10.78
2019-06-10T00:38:42.816Z,11.10
2019-06-10T00:41:14.036Z,11.10
2019-06-10T00:43:44.747Z,11.60
2019-06-10T00:46:14.112Z,10.85
2019-06-10T00:48:43.614Z,11.12
2019-06-10T00:51:13.274Z,11.73
2019-06-10T00:53:42.813Z,11.90
2019-06-10T00:56:14.346Z,11.48
2019-06-10T00:58:43.315Z,11.20
2019-06-10T01:01:14.628Z,11.80
2019-06-10T01:03:43.982Z,11.90
2019-06-10T01:06:15.163Z,12.63
2019-06-10T01:08:44.412Z,12.80
2019-06-10T01:11:21.534Z,12.82
2019-06-10T01:13:44.806Z,14.10
2019-06-10T01:16:15.533Z,13.50
2019-06-10T01:18:45.135Z,12.85
2019-06-10T01:21:15.490Z,12.78
2019-06-10T01:23:46.216Z,13.20
2019-06-10T01:26:16.444Z,12.35
2019-06-10T01:28:46.139Z,11.90
2019-06-10T01:31:19.092Z,13.00
2019-06-10T01:33:46.690Z,11.88
2019-06-10T01:36:16.604Z,13.25
2019-06-10T01:38:46.063Z,13.60
2019-06-10T01:41:16.618Z,14.10
2019-06-10T01:43:46.155Z,14.73
2019-06-10T01:46:17.515Z,14.85
2019-06-10T01:48:48.345Z,15.50
2019-06-10T01:51:21.375Z,14.23
2019-06-10T01:53:51.442Z,16.55
2019-06-10T01:56:21.563Z,15.63
2019-06-10T01:58:52.148Z,15.55
2019-06-10T02:01:30.673Z,15.20
2019-06-10T02:04:00.887Z,15.50
2019-06-10T02:06:31.684Z,15.98
2019-06-10T02:09:06.831Z,15.75
2019-06-10T02:11:36.931Z,15.75
2019-06-10T02:14:06.870Z,15.80
2019-06-10T02:16:36.409Z,15.75
2019-06-10T02:19:05.986Z,16.20
2019-06-10T02:21:35.346Z,16.02
2019-06-10T02:24:04.988Z,16.10
2019-06-10T02:26:34.580Z,15.50
2019-06-10T02:29:04.097Z,15.65
2019-06-10T02:31:37.303Z,14.28
2019-06-10T02:34:05.786Z,14.40
2019-06-10T02:36:36.739Z,14.87
2019-06-10T02:39:08.192Z,14.95
2019-06-10T02:41:38.392Z,14.83
2019-06-10T02:44:08.042Z,14.43
2019-06-10T02:46:37.487Z,14.68
2019-06-10T02:49:23.223Z,14.40
2019-06-10T02:51:38.115Z,13.65
2019-06-10T02:54:07.687Z,14.87
2019-06-10T02:56:37.147Z,13.95
2019-06-10T02:59:06.633Z,14.25
2019-06-10T03:01:38.231Z,15.30
2019-06-10T03:04:07.088Z,15.45
2019-06-10T03:06:40.321Z,17.35
2019-06-10T03:09:07.680Z,17.73
2019-06-10T03:11:37.735Z,17.82
2019-06-10T03:14:07.248Z,16.30
2019-06-10T03:16:42.301Z,16.90
2019-06-10T03:19:13.329Z,16.00
2019-06-10T03:21:43.004Z,15.83
2019-06-10T03:24:13.351Z,16.93
2019-06-10T03:26:42.992Z,16.27
2019-06-10T03:29:12.961Z,17.27
2019-06-10T03:31:47.627Z,18.17
2019-06-10T03:34:14.786Z,17.98
2019-06-10T03:36:44.546Z,17.23
2019-06-10T03:39:13.974Z,18.65
2019-06-10T03:41:43.354Z,18.67
2019-06-10T03:44:13.304Z,18.02
2019-06-10T03:46:43.872Z,18.52
2019-06-10T03:49:13.310Z,19.00
2019-06-10T03:51:43.648Z,18.80
2019-06-10T03:54:13.267Z,18.70
2019-06-10T03:56:43.174Z,20.65
2019-06-10T03:59:12.730Z,21.23
2019-06-10T04:01:42.784Z,20.12
2019-06-10T04:04:13.056Z,20.57
2019-06-10T04:06:44.248Z,18.48
2019-06-10T04:09:13.920Z,18.90
2019-06-10T04:11:43.434Z,18.98
2019-06-10T04:14:13.115Z,18.00
2019-06-10T04:16:43.351Z,17.23
2019-06-10T04:19:13.321Z,18.02
2019-06-10T04:21:43.372Z,17.65
2019-06-10T04:24:13.058Z,17.15
2019-06-10T04:26:43.449Z,18.70
2019-06-10T04:29:13.183Z,17.90
2019-06-10T04:31:44.115Z,19.15
2019-06-10T04:34:14.631Z,17.85
2019-06-10T04:36:43.983Z,18.80
2019-06-10T04:39:13.426Z,16.52
2019-06-10T04:41:43.642Z,16.70
2019-06-10T04:44:13.302Z,16.55
2019-06-10T04:46:43.001Z,16.90
2019-06-10T04:49:13.195Z,17.98
2019-06-10T04:51:43.436Z,16.55
2019-06-10T04:54:13.510Z,17.67
2019-06-10T04:56:43.177Z,16.20
2019-06-10T04:59:12.742Z,16.07
2019-06-10T05:01:42.776Z,16.90
2019-06-10T05:04:12.725Z,17.48
2019-06-10T05:06:42.452Z,17.15
2019-06-10T05:09:12.537Z,17.32
2019-06-10T05:11:43.116Z,18.55
2019-06-10T05:14:13.396Z,18.32
2019-06-10T05:16:44.120Z,17.73
2019-06-10T05:19:13.498Z,17.50
2019-06-10T05:21:42.943Z,17.77
2019-06-10T05:24:14.085Z,17.67
2019-06-10T05:26:43.595Z,18.05
2019-06-10T05:29:13.186Z,18.05
2019-06-10T05:31:43.484Z,19.42
2019-06-10T05:34:16.087Z,19.12
2019-06-10T05:36:45.461Z,18.27
2019-06-10T05:39:14.807Z,17.50
2019-06-10T05:41:44.198Z,18.37
2019-06-10T05:44:13.667Z,17.67
2019-06-10T05:46:43.688Z,17.87
2019-06-10T05:49:13.311Z,18.02
2019-06-10T05:51:42.830Z,18.82
2019-06-10T05:54:12.828Z,17.90
2019-06-10T05:56:43.222Z,18.10
2019-06-10T05:59:13.095Z,17.12
2019-06-10T06:01:43.191Z,17.90
2019-06-10T06:04:12.944Z,16.62
2019-06-10T06:06:45.135Z,17.87
2019-06-10T06:09:13.657Z,21.30
2019-06-10T06:11:43.302Z,19.37
2019-06-10T06:14:13.301Z,19.15
2019-06-10T06:16:43.379Z,17.80
2019-06-10T06:19:13.126Z,18.05
2019-06-10T06:21:47.367Z,17.73
2019-06-10T06:24:13.560Z,21.97
2019-06-10T06:26:43.447Z,21.62
2019-06-10T06:29:13.255Z,23.62
2019-06-10T06:31:43.170Z,40.88
2019-06-10T06:34:13.737Z,26.52
2019-06-10T06:36:43.740Z,27.80
2019-06-10T06:39:13.222Z,44.65
2019-06-10T06:41:43.035Z,37.17
2019-06-10T06:44:13.123Z,28.42
2019-06-10T06:46:43.182Z,24.40
2019-06-10T06:49:13.048Z,18.92
2019-06-10T06:51:54.013Z,20.50
2019-06-10T06:54:13.512Z,20.32
2019-06-10T06:56:43.827Z,18.87
2019-06-10T06:59:13.521Z,17.95
2019-06-10T07:01:44.052Z,17.15
2019-06-10T07:04:14.369Z,17.67
2019-06-10T07:06:43.903Z,16.62
2019-06-10T07:09:13.777Z,15.75
2019-06-10T07:11:45.223Z,14.18
2019-06-10T07:14:15.003Z,9.95
2019-06-10T07:16:46.368Z,7.62
2019-06-10T07:19:15.411Z,7.58
2019-06-10T07:22:05.616Z,7.35
2019-06-10T07:24:16.963Z,7.12
2019-06-10T07:26:52.179Z,7.40
2019-06-10T07:29:17.443Z,6.47
2019-06-10T07:31:50.180Z,6.60
2019-06-10T07:34:17.925Z,7.15
2019-06-10T07:36:47.284Z,7.00
2019-06-10T07:39:16.725Z,6.75
2019-06-10T07:41:47.938Z,6.03
2019-06-10T07:44:17.262Z,6.97
2019-06-10T07:46:46.673Z,6.25
2019-06-10T07:49:16.076Z,6.35
2019-06-10T07:51:46.438Z,7.15
2019-06-10T07:54:16.114Z,5.92
2019-06-10T07:56:50.376Z,6.40
2019-06-10T07:59:16.698Z,6.37
2019-06-10T08:01:51.522Z,6.03
2019-06-10T08:04:17.150Z,6.53
2019-06-10T08:06:49.760Z,5.80
2019-06-10T08:09:17.821Z,6.17
2019-06-10T08:11:48.739Z,5.55
2019-06-10T08:14:18.472Z,5.67
2019-06-10T08:16:48.595Z,5.65
2019-06-10T08:19:31.622Z,5.47
2019-06-10T08:21:49.608Z,5.65
2019-06-10T08:24:19.341Z,5.20
2019-06-10T08:26:48.697Z,5.20
2019-06-10T08:29:18.040Z,5.67
2019-06-10T08:31:49.379Z,5.10
2019-06-10T08:34:18.707Z,5.28
2019-06-10T08:36:50.521Z,5.33
2019-06-10T08:39:19.249Z,5.28
2019-06-10T08:41:49.283Z,5.10
2019-06-10T08:44:18.986Z,5.58
2019-06-10T08:46:48.730Z,5.40
2019-06-10T08:49:18.395Z,4.80
2019-06-10T08:51:50.043Z,4.97
2019-06-10T08:54:18.959Z,5.35
2019-06-10T08:56:50.702Z,5.25
2019-06-10T08:59:19.620Z,5.22
2019-06-10T09:01:55.721Z,4.58
2019-06-10T09:04:22.683Z,4.75
2019-06-10T09:06:53.665Z,5.03
2019-06-10T09:09:22.629Z,5.15
2019-06-10T09:11:54.574Z,4.80
2019-06-10T09:14:24.479Z,4.55
2019-06-10T09:16:54.502Z,4.35
2019-06-10T09:19:25.047Z,4.60
2019-06-10T09:21:56.575Z,4.83
2019-06-10T09:24:26.151Z,4.30
2019-06-10T09:26:55.629Z,4.60
2019-06-10T09:29:25.067Z,4.67
2019-06-10T09:31:55.805Z,4.20
2019-06-10T09:34:25.669Z,4.15
2019-06-10T09:36:56.850Z,4.78
2019-06-10T09:39:26.240Z,4.60
2019-06-10T09:42:01.491Z,4.28
2019-06-10T09:44:26.665Z,4.67
2019-06-10T09:47:00.148Z,4.62
2019-06-10T09:49:28.611Z,4.65
2019-06-10T09:51:58.073Z,5.03
2019-06-10T09:54:27.501Z,5.22
2019-06-10T09:56:56.969Z,4.58
2019-06-10T09:59:26.356Z,4.10
2019-06-10T10:02:00.064Z,4.33
2019-06-10T10:04:26.950Z,4.90
2019-06-10T10:06:57.473Z,4.20
2019-06-10T10:09:27.320Z,4.35
2019-06-10T10:11:56.807Z,4.60
2019-06-10T10:14:27.204Z,4.40
2019-06-10T10:17:00.351Z,4.17
2019-06-10T10:19:27.821Z,4.30
2019-06-10T10:21:58.557Z,4.17
2019-06-10T10:24:28.261Z,4.15
2019-06-10T10:27:01.717Z,4.72
2019-06-10T10:29:28.734Z,4.05
2019-06-10T10:31:58.310Z,4.47
2019-06-10T10:34:27.762Z,4.37
2019-06-10T10:36:57.472Z,4.30
2019-06-10T10:39:27.185Z,4.37
2019-06-10T10:41:57.367Z,4.50
2019-06-10T10:44:26.916Z,4.35
2019-06-10T10:46:56.338Z,4.53
2019-06-10T10:49:25.799Z,5.25
2019-06-10T10:51:55.271Z,4.08
2019-06-10T10:54:32.834Z,4.80
2019-06-10T10:56:59.053Z,4.85
2019-06-10T10:59:26.948Z,5.03
2019-06-10T11:01:56.472Z,4.58
2019-06-10T11:04:25.975Z,4.70
2019-06-10T11:06:57.258Z,4.50
2019-06-10T11:09:27.006Z,5.10
2019-06-10T11:11:58.484Z,5.12
2019-06-10T11:14:29.284Z,5.00
2019-06-10T11:16:59.103Z,5.80
2019-06-10T11:19:28.569Z,5.37
2019-06-10T11:21:58.129Z,5.20
2019-06-10T11:24:36.600Z,5.70
2019-06-10T11:26:58.626Z,6.08
2019-06-10T11:29:28.019Z,5.83
2019-06-10T11:31:58.803Z,5.75
2019-06-10T11:34:29.057Z,6.03
2019-06-10T11:36:58.717Z,5.90
2019-06-10T11:39:28.147Z,6.12
2019-06-10T11:41:57.831Z,6.10
2019-06-10T11:44:27.230Z,6.17
2019-06-10T11:46:58.113Z,6.05
2019-06-10T11:49:27.807Z,6.40
2019-06-10T11:51:59.523Z,6.15
2019-06-10T11:54:28.355Z,6.10
2019-06-10T11:56:58.769Z,6.17
2019-06-10T11:59:28.975Z,6.17
2019-06-10T12:02:00.343Z,6.15
2019-06-10T12:04:29.579Z,6.40
2019-06-10T12:06:59.125Z,6.62
2019-06-10T12:09:29.626Z,6.72
2019-06-10T12:12:02.113Z,6.50
2019-06-10T12:14:32.856Z,6.97
2019-06-10T12:17:30.350Z,6.40
2019-06-10T12:19:34.091Z,6.37
2019-06-10T12:22:07.116Z,6.92
2019-06-10T12:24:34.490Z,6.97
2019-06-10T12:27:05.030Z,6.50
2019-06-10T12:29:35.023Z,6.70
2019-06-10T12:32:07.093Z,6.53
2019-06-10T12:34:35.780Z,6.53
2019-06-10T12:37:11.105Z,5.45
2019-06-10T12:39:36.329Z,5.60
2019-06-10T12:42:06.567Z,6.37
2019-06-10T12:44:36.229Z,5.67
2019-06-10T12:47:07.532Z,6.12
2019-06-10T12:49:36.758Z,5.90
2019-06-10T12:52:07.635Z,5.83
2019-06-10T12:54:37.292Z,6.17
2019-06-10T12:57:07.220Z,6.40
2019-06-10T12:59:36.831Z,5.70
2019-06-10T13:02:15.390Z,5.72
2019-06-10T13:04:38.644Z,6.20
2019-06-10T13:07:08.997Z,6.53
2019-06-10T13:09:39.958Z,6.33
2019-06-10T13:12:12.985Z,6.00
2019-06-10T13:14:43.571Z,6.00
2019-06-10T13:17:12.992Z,6.00
2019-06-10T13:19:43.274Z,5.87
2019-06-10T13:22:12.892Z,6.20
2019-06-10T13:24:43.416Z,5.65
2019-06-10T13:27:12.955Z,5.22
2019-06-10T13:29:43.098Z,5.40
2019-06-10T13:32:13.369Z,5.70
2019-06-10T13:34:42.865Z,5.83
2019-06-10T13:37:15.989Z,5.90
2019-06-10T13:39:43.528Z,5.53
2019-06-10T13:42:14.398Z,5.30
2019-06-10T13:44:43.913Z,5.60
2019-06-10T13:47:15.142Z,5.35
2019-06-10T13:49:44.553Z,5.60
2019-06-10T13:52:16.858Z,5.78
2019-06-10T13:54:47.277Z,5.28
2019-06-10T13:57:16.831Z,5.53
2019-06-10T13:59:46.687Z,5.45
2019-06-10T14:02:17.338Z,5.50
2019-06-10T14:04:46.791Z,5.42
2019-06-10T14:07:17.425Z,5.58
2019-06-10T14:09:47.173Z,5.70
2019-06-10T14:12:17.327Z,5.78
2019-06-10T14:14:47.348Z,5.92
2019-06-10T14:17:22.132Z,5.83
2019-06-10T14:19:50.694Z,6.30
2019-06-10T14:22:22.664Z,6.83
2019-06-10T14:24:53.056Z,6.37
2019-06-10T14:27:24.773Z,5.80
2019-06-10T14:29:53.648Z,5.85
2019-06-10T14:32:23.181Z,6.20
2019-06-10T14:34:52.815Z,6.40
2019-06-10T14:37:33.113Z,6.65
2019-06-10T14:39:56.090Z,6.45
2019-06-10T14:42:25.580Z,6.58
2019-06-10T14:44:55.083Z,6.30
2019-06-10T14:47:24.830Z,6.53
2019-06-10T14:49:54.358Z,6.03
2019-06-10T14:52:23.844Z,7.12
2019-06-10T14:54:57.315Z,6.62
2019-06-10T14:57:25.006Z,7.12
2019-06-10T14:59:54.732Z,6.35
2019-06-10T15:02:24.300Z,6.28
2019-06-10T15:04:53.810Z,6.47
2019-06-10T15:07:23.944Z,6.03
2019-06-10T15:09:54.655Z,6.65
2019-06-10T15:12:25.443Z,5.92
2019-06-10T15:14:54.803Z,6.10
2019-06-10T15:17:24.465Z,5.70
2019-06-10T15:19:53.979Z,6.03
2019-06-10T15:22:23.798Z,5.97
2019-06-10T15:24:53.344Z,5.92
2019-06-10T15:27:29.825Z,6.90
2019-06-10T15:29:53.978Z,6.40
2019-06-10T15:32:33.947Z,6.15
2019-06-10T15:34:54.516Z,5.78
2019-06-10T15:37:24.312Z,5.37
2019-06-10T15:39:54.126Z,6.40
2019-06-10T15:42:23.585Z,5.75
2019-06-10T15:44:56.033Z,6.28
2019-06-10T15:47:26.479Z,6.22
2019-06-10T15:49:55.376Z,6.53
2019-06-10T15:52:27.583Z,6.28
2019-06-10T15:54:57.032Z,5.78
2019-06-10T15:57:38.504Z,6.45
2019-06-10T15:59:57.654Z,5.83
2019-06-10T16:02:27.194Z,6.00
2019-06-10T16:04:56.668Z,6.17
2019-06-10T16:07:26.315Z,6.17
2019-06-10T16:09:55.864Z,5.92
2019-06-10T16:12:27.302Z,5.53
2019-06-10T16:14:59.381Z,5.40
2019-06-10T16:17:33.100Z,5.90
2019-06-10T16:20:00.437Z,5.85
2019-06-10T16:22:33.030Z,5.83
2019-06-10T16:25:03.463Z,5.97
2019-06-10T16:27:46.355Z,5.40
2019-06-10T16:30:07.202Z,6.22
2019-06-10T16:32:36.596Z,5.67
2019-06-10T16:35:07.367Z,5.62
2019-06-10T16:37:36.810Z,5.67
2019-06-10T16:40:07.177Z,6.15
2019-06-10T16:42:36.578Z,5.80
2019-06-10T16:45:06.806Z,5.95
2019-06-10T16:47:36.287Z,5.70
2019-06-10T16:50:07.191Z,5.40
2019-06-10T16:52:36.612Z,5.87
2019-06-10T16:55:06.235Z,5.30
2019-06-10T16:57:35.752Z,5.90
2019-06-10T17:00:12.108Z,5.80
2019-06-10T17:02:42.689Z,5.58
2019-06-10T17:05:12.432Z,6.12
2019-06-10T17:07:43.476Z,6.35
2019-06-10T17:10:15.535Z,6.55
2019-06-10T17:12:49.607Z,5.70
2019-06-10T17:15:19.215Z,6.50
2019-06-10T17:17:48.635Z,6.40
2019-06-10T17:20:18.600Z,6.15
2019-06-10T17:22:48.093Z,6.50
2019-06-10T17:25:18.989Z,6.00
2019-06-10T17:27:48.530Z,5.97
2019-06-10T17:30:19.284Z,6.28
2019-06-10T17:32:49.030Z,6.12
2019-06-10T17:35:19.980Z,6.53
2019-06-10T17:37:49.603Z,6.70
2019-06-10T17:40:19.087Z,5.78
2019-06-10T17:42:48.499Z,6.15
2019-06-10T17:45:18.750Z,6.22
2019-06-10T17:47:48.670Z,7.12
2019-06-10T17:50:18.513Z,6.10
2019-06-10T17:52:48.028Z,5.78
2019-06-10T17:55:17.635Z,6.53
2019-06-10T17:57:48.560Z,6.20
2019-06-10T18:00:23.431Z,7.17
2019-06-10T18:02:53.844Z,6.12
2019-06-10T18:05:23.877Z,6.50
2019-06-10T18:07:54.681Z,7.45
2019-06-10T18:10:25.531Z,6.45
2019-06-10T18:12:55.137Z,7.58
2019-06-10T18:15:25.966Z,7.35
2019-06-10T18:17:57.044Z,6.58
2019-06-10T18:20:27.169Z,10.82
2019-06-10T18:22:56.675Z,18.52
2019-06-10T18:25:27.187Z,14.13
2019-06-10T18:27:56.659Z,18.12
2019-06-10T18:30:27.242Z,12.95
2019-06-10T18:32:56.779Z,30.68
2019-06-10T18:35:26.316Z,41.90
2019-06-10T18:37:55.779Z,28.38
2019-06-10T18:40:25.276Z,24.55
2019-06-10T18:42:54.749Z,43.40
2019-06-10T18:45:24.866Z,6.45
2019-06-10T18:47:54.432Z,6.35
2019-06-10T18:50:26.052Z,5.95
2019-06-10T18:52:58.287Z,5.97
2019-06-10T18:55:26.861Z,6.25
2019-06-10T18:57:56.318Z,6.58
2019-06-10T19:00:26.003Z,5.67
2019-06-10T19:03:09.249Z,5.15
2019-06-10T19:05:26.723Z,8.40
2019-06-10T19:07:56.214Z,12.33
2019-06-10T19:10:25.754Z,6.53
2019-06-10T19:12:55.236Z,6.72
2019-06-10T19:15:24.863Z,6.60
2019-06-10T19:17:56.272Z,7.10
2019-06-10T19:20:25.505Z,6.15
2019-06-10T19:22:54.867Z,6.83
2019-06-10T19:25:24.382Z,5.55
2019-06-10T19:27:53.860Z,6.22
2019-06-10T19:30:24.899Z,5.87
2019-06-10T19:32:55.081Z,6.08
2019-06-10T19:35:25.494Z,6.45
2019-06-10T19:37:54.850Z,5.37
2019-06-10T19:40:24.393Z,5.45
2019-06-10T19:42:53.866Z,5.08
2019-06-10T19:45:23.398Z,5.60
2019-06-10T19:47:56.591Z,5.35
2019-06-10T19:50:32.779Z,5.90
2019-06-10T19:53:02.674Z,5.42
2019-06-10T19:55:33.693Z,5.78
2019-06-10T19:58:03.942Z,5.75
2019-06-10T20:00:50.229Z,6.12
2019-06-10T20:03:13.665Z,5.53
2019-06-10T20:05:46.366Z,5.12
2019-06-10T20:08:14.623Z,5.03
2019-06-10T20:10:44.870Z,5.15
2019-06-10T20:13:14.344Z,5.35
2019-06-10T20:15:44.972Z,4.90
2019-06-10T20:18:33.331Z,5.72
2019-06-10T20:21:12.960Z,5.10
2019-06-10T20:23:55.025Z,5.22
2019-06-10T20:26:27.708Z,5.33
2019-06-10T20:28:55.780Z,5.78
2019-06-10T20:31:47.564Z,5.17
2019-06-10T20:34:17.882Z,4.90
2019-06-10T20:37:02.465Z,5.37
2019-06-10T20:39:32.956Z,4.67
2019-06-10T20:42:02.868Z,5.53
2019-06-10T20:44:35.587Z,5.85
2019-06-10T20:47:05.128Z,5.28
2019-06-10T20:49:34.767Z,5.00
2019-06-10T20:52:11.168Z,5.28
2019-06-10T20:54:35.542Z,5.33
2019-06-10T20:57:05.065Z,4.80
2019-06-10T20:59:35.187Z,5.37
2019-06-10T21:02:04.674Z,5.15
2019-06-10T21:04:35.695Z,5.20
2019-06-10T21:07:09.167Z,4.90
2019-06-10T21:09:39.589Z,4.60
2019-06-10T21:12:12.925Z,5.00
2019-06-10T21:14:42.697Z,5.40
2019-06-10T21:17:12.708Z,5.40
2019-06-10T21:19:44.366Z,6.05
2019-06-10T21:22:19.501Z,5.30
2019-06-10T21:24:53.540Z,5.78
2019-06-10T21:27:23.782Z,5.77
2019-06-10T21:29:55.104Z,4.80
2019-06-10T21:32:27.428Z,5.15
2019-06-10T21:35:03.136Z,5.55
2019-06-10T21:37:39.080Z,5.03
2019-06-10T21:40:09.048Z,4.50
2019-06-10T21:42:38.710Z,5.00
2019-06-10T21:45:12.641Z,5.37
2019-06-10T21:47:44.490Z,5.07
2019-06-10T21:50:15.907Z,5.15
2019-06-10T21:52:47.304Z,4.87
2019-06-10T21:55:22.479Z,4.72
2019-06-10T21:57:55.227Z,5.37
2019-06-10T22:00:30.852Z,5.20
2019-06-10T22:03:03.023Z,4.95
2019-06-10T22:05:33.151Z,4.53
2019-06-10T22:08:05.460Z,4.70
2019-06-10T22:10:34.817Z,5.85
2019-06-10T22:13:04.286Z,4.58
2019-06-10T22:15:36.875Z,4.78
2019-06-10T22:18:08.040Z,4.55
2019-06-10T22:20:37.568Z,4.22
2019-06-10T22:23:08.176Z,4.97
2019-06-10T22:25:38.217Z,4.28
2019-06-10T22:28:07.624Z,4.90
2019-06-10T22:30:36.980Z,4.78
2019-06-10T22:33:06.360Z,5.03
2019-06-10T22:35:35.701Z,4.75
2019-06-10T22:38:05.074Z,4.90
2019-06-10T22:40:34.496Z,4.50
2019-06-10T22:43:07.663Z,4.87
2019-06-10T22:45:36.250Z,5.33
2019-06-10T22:48:05.685Z,4.53
2019-06-10T22:50:35.036Z,4.78
2019-06-10T22:53:04.479Z,5.20
2019-06-10T22:55:33.851Z,5.53
2019-06-10T22:58:06.206Z,4.67
2019-06-10T23:00:34.276Z,4.90
2019-06-10T23:03:03.682Z,4.35
2019-06-10T23:05:33.328Z,3.92
2019-06-10T23:08:02.813Z,4.35
2019-06-10T23:10:33.808Z,4.35
2019-06-10T23:13:03.376Z,4.37
2019-06-10T23:15:32.840Z,4.60
2019-06-10T23:18:03.258Z,4.20
2019-06-10T23:20:33.298Z,4.62
2019-06-10T23:23:03.171Z,4.65
2019-06-10T23:25:32.731Z,4.45
2019-06-10T23:28:03.115Z,4.50
2019-06-10T23:30:33.727Z,4.25
2019-06-10T23:33:03.267Z,4.45
2019-06-10T23:35:34.301Z,4.47
2019-06-10T23:38:05.082Z,4.50
2019-06-10T23:40:34.739Z,4.17
2019-06-10T23:43:04.173Z,3.92
2019-06-10T23:45:35.228Z,4.17
2019-06-10T23:48:05.168Z,4.03
2019-06-10T23:50:35.516Z,4.05
2019-06-10T23:53:07.904Z,4.78
2019-06-10T23:55:35.988Z,3.87
2019-06-10T23:58:05.347Z,4.05
